sensor_id;sensor_type;location;lat;lon;timestamp;pressure;altitude;pressure_sealevel;temperature;humidity
59531;BME280;45349;48.692;8.186;2023-02-11T00:00:51;100735.91;;;-2.39;100.00
59531;BME280;45349;48.692;8.186;2023-02-11T00:03:17;100736.84;;;-2.51;100.00
59531;BME280;45349;48.692;8.186;2023-02-11T00:05:45;100738.31;;;-2.28;100.00
59531;BME280;45349;48.692;8.186;2023-02-11T00:08:21;100741.78;;;-2.32;100.00
59531;BME280;45349;48.692;8.186;2023-02-11T00:10:50;100741.84;;;-2.37;100.00
59531;BME280;45349;48.692;8.186;2023-02-11T00:13:17;100743.44;;;-2.28;100.00
59531;BME280;45349;48.692;8.186;2023-02-11T00:15:43;100741.88;;;-2.42;100.00
59531;BME280;45349;48.692;8.186;2023-02-11T00:18:10;100745.22;;;-2.35;100.00
59531;BME280;45349;48.692;8.186;2023-02-11T00:20:37;100753.81;;;-2.42;100.00
59531;BME280;45349;48.692;8.186;2023-02-11T00:23:05;100745.34;;;-2.49;100.00
59531;BME280;45349;48.692;8.186;2023-02-11T00:25:32;100743.66;;;-2.48;100.00
59531;BME280;45349;48.692;8.186;2023-02-11T00:27:58;100742.69;;;-2.37;100.00
59531;BME280;45349;48.692;8.186;2023-02-11T00:30:25;100741.84;;;-2.37;100.00
59531;BME280;45349;48.692;8.186;2023-02-11T00:32:52;100750.28;;;-2.30;100.00
59531;BME280;45349;48.692;8.186;2023-02-11T00:35:18;100745.94;;;-2.20;100.00
59531;BME280;45349;48.692;8.186;2023-02-11T00:37:45;100745.00;;;-2.15;100.00
59531;BME280;45349;48.692;8.186;2023-02-11T00:40:14;100730.63;;;-2.24;100.00
59531;BME280;45349;48.692;8.186;2023-02-11T00:42:40;100721.22;;;-2.21;100.00
59531;BME280;45349;48.692;8.186;2023-02-11T00:45:07;100723.81;;;-2.25;100.00
59531;BME280;45349;48.692;8.186;2023-02-11T00:47:35;100724.69;;;-2.29;100.00
59531;BME280;45349;48.692;8.186;2023-02-11T00:50:02;100712.84;;;-2.36;100.00
59531;BME280;45349;48.692;8.186;2023-02-11T00:52:29;100719.72;;;-2.41;100.00
59531;BME280;45349;48.692;8.186;2023-02-11T00:54:56;100724.84;;;-2.43;100.00
59531;BME280;45349;48.692;8.186;2023-02-11T00:57:24;100723.09;;;-2.41;100.00
59531;BME280;45349;48.692;8.186;2023-02-11T00:59:51;100718.00;;;-2.39;100.00
59531;BME280;45349;48.692;8.186;2023-02-11T01:02:17;100720.59;;;-2.45;100.00
59531;BME280;45349;48.692;8.186;2023-02-11T01:04:44;100711.22;;;-2.43;100.00
59531;BME280;45349;48.692;8.186;2023-02-11T01:07:10;100713.81;;;-2.46;100.00
59531;BME280;45349;48.692;8.186;2023-02-11T01:09:37;100712.88;;;-2.41;100.00
59531;BME280;45349;48.692;8.186;2023-02-11T01:12:04;100717.97;;;-2.36;100.00
59531;BME280;45349;48.692;8.186;2023-02-11T01:14:32;100713.66;;;-2.34;100.00
59531;BME280;45349;48.692;8.186;2023-02-11T01:16:59;100717.09;;;-2.35;100.00
59531;BME280;45349;48.692;8.186;2023-02-11T01:19:25;100705.22;;;-2.42;100.00
59531;BME280;45349;48.692;8.186;2023-02-11T01:21:54;100709.47;;;-2.43;100.00
59531;BME280;45349;48.692;8.186;2023-02-11T01:24:21;100714.50;;;-2.33;100.00
59531;BME280;45349;48.692;8.186;2023-02-11T01:26:47;100720.47;;;-2.34;100.00
59531;BME280;45349;48.692;8.186;2023-02-11T01:29:14;100715.38;;;-2.34;100.00
59531;BME280;45349;48.692;8.186;2023-02-11T01:31:42;100716.94;;;-2.21;100.00
59531;BME280;45349;48.692;8.186;2023-02-11T01:34:08;100705.88;;;-2.21;100.00
59531;BME280;45349;48.692;8.186;2023-02-11T01:36:36;100692.97;;;-2.12;100.00
59531;BME280;45349;48.692;8.186;2023-02-11T01:39:02;100698.75;;;-2.01;100.00
59531;BME280;45349;48.692;8.186;2023-02-11T01:41:29;100691.13;;;-2.02;100.00
59531;BME280;45349;48.692;8.186;2023-02-11T01:43:56;100682.47;;;-1.94;100.00
59531;BME280;45349;48.692;8.186;2023-02-11T01:46:30;100668.78;;;-1.91;100.00
59531;BME280;45349;48.692;8.186;2023-02-11T01:49:02;100675.47;;;-1.81;100.00
59531;BME280;45349;48.692;8.186;2023-02-11T01:51:33;100676.31;;;-1.79;100.00
59531;BME280;45349;48.692;8.186;2023-02-11T01:54:01;100662.69;;;-1.82;100.00
59531;BME280;45349;48.692;8.186;2023-02-11T01:56:48;100651.63;;;-1.83;100.00
59531;BME280;45349;48.692;8.186;2023-02-11T01:59:40;100657.50;;;-1.77;100.00
59531;BME280;45349;48.692;8.186;2023-02-11T02:02:09;100664.28;;;-1.73;100.00
59531;BME280;45349;48.692;8.186;2023-02-11T02:04:43;100658.16;;;-1.65;100.00
59531;BME280;45349;48.692;8.186;2023-02-11T02:07:17;100663.16;;;-1.55;100.00
59531;BME280;45349;48.692;8.186;2023-02-11T02:09:51;100665.56;;;-1.46;100.00
59531;BME280;45349;48.692;8.186;2023-02-11T02:12:23;100663.81;;;-1.42;100.00
59531;BME280;45349;48.692;8.186;2023-02-11T02:15:21;100674.00;;;-1.39;100.00
59531;BME280;45349;48.692;8.186;2023-02-11T02:17:57;100673.91;;;-1.33;100.00
59531;BME280;45349;48.692;8.186;2023-02-11T02:20:41;100670.38;;;-1.24;100.00
59531;BME280;45349;48.692;8.186;2023-02-11T02:23:28;100662.59;;;-1.18;100.00
59531;BME280;45349;48.692;8.186;2023-02-11T02:32:33;100656.28;;;-1.00;100.00
59531;BME280;45349;48.692;8.186;2023-02-11T02:35:10;100649.13;;;-0.82;100.00
59531;BME280;45349;48.692;8.186;2023-02-11T02:37:46;100650.88;;;-0.84;100.00
59531;BME280;45349;48.692;8.186;2023-02-11T02:40:17;100639.69;;;-0.80;100.00
59531;BME280;45349;48.692;8.186;2023-02-11T02:42:46;100648.16;;;-0.77;100.00
59531;BME280;45349;48.692;8.186;2023-02-11T02:45:13;100641.13;;;-0.65;99.48
59531;BME280;45349;48.692;8.186;2023-02-11T02:47:42;100644.50;;;-0.63;99.98
59531;BME280;45349;48.692;8.186;2023-02-11T02:50:08;100646.28;;;-0.67;100.00
59531;BME280;45349;48.692;8.186;2023-02-11T02:52:41;100641.34;;;-0.78;99.36
59531;BME280;45349;48.692;8.186;2023-02-11T02:55:21;100642.34;;;-0.85;100.00
59531;BME280;45349;48.692;8.186;2023-02-11T02:58:04;100639.13;;;-0.96;100.00
59531;BME280;45349;48.692;8.186;2023-02-11T03:00:37;100638.50;;;-1.09;100.00
59531;BME280;45349;48.692;8.186;2023-02-11T03:03:21;100637.84;;;-1.21;100.00
59531;BME280;45349;48.692;8.186;2023-02-11T03:05:58;100648.84;;;-1.14;100.00
59531;BME280;45349;48.692;8.186;2023-02-11T03:08:31;100637.06;;;-1.24;100.00
59531;BME280;45349;48.692;8.186;2023-02-11T03:11:00;100639.78;;;-1.35;100.00
59531;BME280;45349;48.692;8.186;2023-02-11T03:13:30;100633.06;;;-1.42;100.00
59531;BME280;45349;48.692;8.186;2023-02-11T03:16:01;100625.47;;;-1.47;100.00
59531;BME280;45349;48.692;8.186;2023-02-11T03:18:31;100627.97;;;-1.44;100.00
59531;BME280;45349;48.692;8.186;2023-02-11T03:21:01;100625.47;;;-1.49;100.00
59531;BME280;45349;48.692;8.186;2023-02-11T03:23:31;100629.81;;;-1.52;100.00
59531;BME280;45349;48.692;8.186;2023-02-11T03:26:04;100628.31;;;-1.64;100.00
59531;BME280;45349;48.692;8.186;2023-02-11T03:28:37;100635.22;;;-1.71;100.00
59531;BME280;45349;48.692;8.186;2023-02-11T03:31:11;100626.72;;;-1.73;100.00
59531;BME280;45349;48.692;8.186;2023-02-11T03:33:48;100627.66;;;-1.79;100.00
59531;BME280;45349;48.692;8.186;2023-02-11T03:36:21;100632.59;;;-1.68;100.00
59531;BME280;45349;48.692;8.186;2023-02-11T03:38:54;100631.09;;;-1.80;100.00
59531;BME280;45349;48.692;8.186;2023-02-11T03:41:23;100635.34;;;-1.80;100.00
59531;BME280;45349;48.692;8.186;2023-02-11T03:43:52;100629.41;;;-1.81;100.00
59531;BME280;45349;48.692;8.186;2023-02-11T03:46:22;100632.09;;;-1.90;100.00
59531;BME280;45349;48.692;8.186;2023-02-11T03:48:54;100623.63;;;-1.95;100.00
59531;BME280;45349;48.692;8.186;2023-02-11T03:51:22;100597.91;;;-1.87;100.00
59531;BME280;45349;48.692;8.186;2023-02-11T03:53:51;100604.13;;;-1.48;100.00
59531;BME280;45349;48.692;8.186;2023-02-11T03:56:23;100610.00;;;-1.41;100.00
59531;BME280;45349;48.692;8.186;2023-02-11T03:58:51;100610.00;;;-1.41;100.00
59531;BME280;45349;48.692;8.186;2023-02-11T04:01:18;100610.88;;;-1.42;100.00
59531;BME280;45349;48.692;8.186;2023-02-11T04:03:44;100606.31;;;-1.24;100.00
59531;BME280;45349;48.692;8.186;2023-02-11T04:06:12;100612.97;;;-1.14;99.61
59531;BME280;45349;48.692;8.186;2023-02-11T04:08:39;100603.53;;;-1.13;99.42
59531;BME280;45349;48.692;8.186;2023-02-11T04:11:05;100618.91;;;-1.12;99.49
59531;BME280;45349;48.692;8.186;2023-02-11T04:13:32;100622.84;;;-0.95;98.13
59531;BME280;45349;48.692;8.186;2023-02-11T04:15:58;100618.66;;;-0.99;98.80
59531;BME280;45349;48.692;8.186;2023-02-11T04:18:25;100618.66;;;-0.99;99.64
59531;BME280;45349;48.692;8.186;2023-02-11T04:20:52;100627.16;;;-0.96;100.00
59531;BME280;45349;48.692;8.186;2023-02-11T04:23:20;100631.22;;;-0.84;100.00
59531;BME280;45349;48.692;8.186;2023-02-11T04:25:47;100637.13;;;-0.80;100.00
59531;BME280;45349;48.692;8.186;2023-02-11T04:28:14;100649.91;;;-0.77;100.00
59531;BME280;45349;48.692;8.186;2023-02-11T04:30:40;100665.47;;;-0.88;100.00
59531;BME280;45349;48.692;8.186;2023-02-11T04:33:07;100651.06;;;-0.94;100.00
59531;BME280;45349;48.692;8.186;2023-02-11T04:35:34;100640.03;;;-0.99;100.00
59531;BME280;45349;48.692;8.186;2023-02-11T04:38:00;100643.47;;;-1.01;100.00
59531;BME280;45349;48.692;8.186;2023-02-11T04:40:28;100644.34;;;-1.01;100.00
59531;BME280;45349;48.692;8.186;2023-02-11T04:42:55;100636.72;;;-1.06;100.00
59531;BME280;45349;48.692;8.186;2023-02-11T04:45:21;100627.22;;;-1.00;100.00
59531;BME280;45349;48.692;8.186;2023-02-11T04:47:48;100622.84;;;-0.95;100.00
59531;BME280;45349;48.692;8.186;2023-02-11T04:50:14;100617.56;;;-0.84;100.00
59531;BME280;45349;48.692;8.186;2023-02-11T04:52:41;100608.00;;;-0.78;100.00
59531;BME280;45349;48.692;8.186;2023-02-11T04:55:07;100599.19;;;-0.63;100.00
59531;BME280;45349;48.692;8.186;2023-02-11T04:57:35;100597.31;;;-0.54;100.00
59531;BME280;45349;48.692;8.186;2023-02-11T05:00:02;100590.47;;;-0.54;100.00
59531;BME280;45349;48.692;8.186;2023-02-11T05:02:29;100598.91;;;-0.50;99.96
59531;BME280;45349;48.692;8.186;2023-02-11T05:04:56;100607.28;;;-0.40;99.60
59531;BME280;45349;48.692;8.186;2023-02-11T05:07:23;100600.66;;;-0.51;98.49
59531;BME280;45349;48.692;8.186;2023-02-11T05:09:49;100593.13;;;-0.58;98.69
59531;BME280;45349;48.692;8.186;2023-02-11T05:12:16;100596.66;;;-0.64;99.47
59531;BME280;45349;48.692;8.186;2023-02-11T05:14:44;100599.19;;;-0.63;99.26
59531;BME280;45349;48.692;8.186;2023-02-11T05:17:10;100593.13;;;-0.60;99.18
59531;BME280;45349;48.692;8.186;2023-02-11T05:19:37;100596.66;;;-0.64;99.37
59531;BME280;45349;48.692;8.186;2023-02-11T05:22:03;100589.81;;;-0.64;99.85
59531;BME280;45349;48.692;8.186;2023-02-11T05:24:30;100589.75;;;-0.62;100.00
59531;BME280;45349;48.692;8.186;2023-02-11T05:26:57;100588.00;;;-0.58;98.98
59531;BME280;45349;48.692;8.186;2023-02-11T05:29:24;100588.00;;;-0.60;99.95
59531;BME280;45349;48.692;8.186;2023-02-11T05:31:52;100589.63;;;-0.56;100.00
59531;BME280;45349;48.692;8.186;2023-02-11T05:34:19;100582.06;;;-0.62;100.00
59531;BME280;45349;48.692;8.186;2023-02-11T05:36:46;100572.75;;;-0.66;100.00
59531;BME280;45349;48.692;8.186;2023-02-11T05:39:12;100578.00;;;-0.72;100.00
59531;BME280;45349;48.692;8.186;2023-02-11T05:41:39;100571.34;;;-0.83;100.00
59531;BME280;45349;48.692;8.186;2023-02-11T05:44:05;100565.47;;;-0.86;100.00
59531;BME280;45349;48.692;8.186;2023-02-11T05:46:32;100555.22;;;-0.88;100.00
59531;BME280;45349;48.692;8.186;2023-02-11T05:49:00;100552.59;;;-0.85;100.00
59531;BME280;45349;48.692;8.186;2023-02-11T05:51:26;100550.03;;;-0.85;100.00
59531;BME280;45349;48.692;8.186;2023-02-11T05:53:54;100550.91;;;-0.86;100.00
59531;BME280;45349;48.692;8.186;2023-02-11T05:56:20;100560.34;;;-0.88;100.00
59531;BME280;45349;48.692;8.186;2023-02-11T05:58:47;100550.00;;;-0.83;100.00
59531;BME280;45349;48.692;8.186;2023-02-11T06:01:14;100550.47;;;-0.64;100.00
59531;BME280;45349;48.692;8.186;2023-02-11T06:03:40;100549.59;;;-0.62;100.00
59531;BME280;45349;48.692;8.186;2023-02-11T06:06:10;100550.34;;;-0.58;100.00
59531;BME280;45349;48.692;8.186;2023-02-11T06:08:36;100555.66;;;-0.66;100.00
59531;BME280;45349;48.692;8.186;2023-02-11T06:11:03;100562.34;;;-0.60;100.00
59531;BME280;45349;48.692;8.186;2023-02-11T06:13:30;100559.03;;;-0.64;100.00
59531;BME280;45349;48.692;8.186;2023-02-11T06:15:58;100565.91;;;-0.66;100.00
59531;BME280;45349;48.692;8.186;2023-02-11T06:18:25;100575.28;;;-0.65;100.00
59531;BME280;45349;48.692;8.186;2023-02-11T06:20:52;100574.44;;;-0.65;100.00
59531;BME280;45349;48.692;8.186;2023-02-11T06:23:20;100587.25;;;-0.64;100.00
59531;BME280;45349;48.692;8.186;2023-02-11T06:25:46;100589.69;;;-0.57;100.00
59531;BME280;45349;48.692;8.186;2023-02-11T06:28:13;100587.94;;;-0.57;100.00
59531;BME280;45349;48.692;8.186;2023-02-11T06:30:40;100590.50;;;-0.57;100.00
59531;BME280;45349;48.692;8.186;2023-02-11T06:33:06;100600.75;;;-0.55;100.00
59531;BME280;45349;48.692;8.186;2023-02-11T06:35:33;100604.16;;;-0.55;100.00
59531;BME280;45349;48.692;8.186;2023-02-11T06:38:01;100603.31;;;-0.55;100.00
59531;BME280;45349;48.692;8.186;2023-02-11T06:40:28;100603.28;;;-0.54;100.00
59531;BME280;45349;48.692;8.186;2023-02-11T06:42:55;100610.16;;;-0.54;100.00
59531;BME280;45349;48.692;8.186;2023-02-11T06:45:22;100613.53;;;-0.54;100.00
59531;BME280;45349;48.692;8.186;2023-02-11T06:47:50;100601.34;;;-0.44;100.00
59531;BME280;45349;48.692;8.186;2023-02-11T06:50:17;100597.84;;;-0.38;100.00
59531;BME280;45349;48.692;8.186;2023-02-11T06:52:43;100591.75;;;-0.34;100.00
59531;BME280;45349;48.692;8.186;2023-02-11T06:55:10;100588.19;;;-0.27;100.00
59531;BME280;45349;48.692;8.186;2023-02-11T06:57:38;100589.84;;;-0.24;100.00
59531;BME280;45349;48.692;8.186;2023-02-11T07:00:05;100592.19;;;-0.13;100.00
59531;BME280;45349;48.692;8.186;2023-02-11T07:02:32;100579.16;;;-0.04;100.00
59531;BME280;45349;48.692;8.186;2023-02-11T07:04:59;100576.34;;;0.05;100.00
59531;BME280;45349;48.692;8.186;2023-02-11T07:07:26;100581.47;;;0.05;100.00
59531;BME280;45349;48.692;8.186;2023-02-11T07:09:52;100584.78;;;0.10;100.00
59531;BME280;45349;48.692;8.186;2023-02-11T07:12:19;100588.94;;;0.16;100.00
59531;BME280;45349;48.692;8.186;2023-02-11T07:14:47;100593.06;;;0.23;100.00
59531;BME280;45349;48.692;8.186;2023-02-11T07:17:14;100595.44;;;0.31;100.00
59531;BME280;45349;48.692;8.186;2023-02-11T07:19:40;100598.66;;;0.39;100.00
59531;BME280;45349;48.692;8.186;2023-02-11T07:22:07;100601.06;;;0.47;99.31
59531;BME280;45349;48.692;8.186;2023-02-11T07:24:34;100599.19;;;0.54;98.69
59531;BME280;45349;48.692;8.186;2023-02-11T07:27:00;100593.03;;;0.59;98.98
59531;BME280;45349;48.692;8.186;2023-02-11T07:29:27;100597.19;;;0.65;98.88
59531;BME280;45349;48.692;8.186;2023-02-11T07:31:55;100602.13;;;0.73;98.63
59531;BME280;45349;48.692;8.186;2023-02-11T07:34:23;100604.59;;;0.78;98.66
59531;BME280;45349;48.692;8.186;2023-02-11T07:36:50;100601.97;;;0.79;98.29
59531;BME280;45349;48.692;8.186;2023-02-11T07:39:17;100593.19;;;0.88;98.46
59531;BME280;45349;48.692;8.186;2023-02-11T07:41:44;100605.81;;;0.96;97.41
59531;BME280;45349;48.692;8.186;2023-02-11T07:44:12;100606.56;;;1.01;96.84
59531;BME280;45349;48.692;8.186;2023-02-11T07:46:38;100610.78;;;1.03;96.72
59531;BME280;45349;48.692;8.186;2023-02-11T07:49:08;100611.47;;;1.09;96.91
59531;BME280;45349;48.692;8.186;2023-02-11T07:51:35;100615.63;;;1.14;96.73
59531;BME280;45349;48.692;8.186;2023-02-11T07:54:01;100624.91;;;1.20;96.47
59531;BME280;45349;48.692;8.186;2023-02-11T07:56:29;100641.84;;;1.27;96.22
59531;BME280;45349;48.692;8.186;2023-02-11T07:58:59;100657.13;;;1.33;95.99
59531;BME280;45349;48.692;8.186;2023-02-11T08:01:26;100660.66;;;1.31;94.88
59531;BME280;45349;48.692;8.186;2023-02-11T08:03:53;100656.25;;;1.35;95.25
59531;BME280;45349;48.692;8.186;2023-02-11T08:06:23;100655.34;;;1.37;95.13
59531;BME280;45349;48.692;8.186;2023-02-11T08:08:50;100664.69;;;1.40;94.90
59531;BME280;45349;48.692;8.186;2023-02-11T08:11:19;100658.09;;;1.29;94.11
59531;BME280;45349;48.692;8.186;2023-02-11T08:13:46;100653.09;;;1.25;94.99
59531;BME280;45349;48.692;8.186;2023-02-11T08:16:17;100659.13;;;1.24;94.93
59531;BME280;45349;48.692;8.186;2023-02-11T08:18:44;100654.81;;;1.24;94.73
59531;BME280;45349;48.692;8.186;2023-02-11T08:21:11;100649.66;;;1.24;94.68
59531;BME280;45349;48.692;8.186;2023-02-11T08:23:40;100652.22;;;1.24;95.04
59531;BME280;45349;48.692;8.186;2023-02-11T08:26:09;100653.16;;;1.22;95.37
59531;BME280;45349;48.692;8.186;2023-02-11T08:28:38;100647.94;;;1.25;95.52
59531;BME280;45349;48.692;8.186;2023-02-11T08:31:05;100653.00;;;1.28;95.37
59531;BME280;45349;48.692;8.186;2023-02-11T08:33:32;100656.25;;;1.35;95.13
59531;BME280;45349;48.692;8.186;2023-02-11T08:35:59;100654.38;;;1.41;94.97
59531;BME280;45349;48.692;8.186;2023-02-11T08:38:26;100649.16;;;1.43;94.57
59531;BME280;45349;48.692;8.186;2023-02-11T08:40:54;100645.59;;;1.49;94.85
59531;BME280;45349;48.692;8.186;2023-02-11T08:43:20;100651.41;;;1.55;94.06
59531;BME280;45349;48.692;8.186;2023-02-11T08:45:47;100656.47;;;1.58;93.54
59531;BME280;45349;48.692;8.186;2023-02-11T08:48:14;100646.00;;;1.65;93.86
59531;BME280;45349;48.692;8.186;2023-02-11T08:50:41;100643.34;;;1.66;91.02
59531;BME280;45349;48.692;8.186;2023-02-11T08:53:07;100654.47;;;1.68;92.18
59531;BME280;45349;48.692;8.186;2023-02-11T08:55:34;100652.66;;;1.72;91.17
59531;BME280;45349;48.692;8.186;2023-02-11T08:58:02;100652.41;;;1.80;91.15
59531;BME280;45349;48.692;8.186;2023-02-11T09:00:28;100654.09;;;1.81;90.30
59531;BME280;45349;48.692;8.186;2023-02-11T09:02:55;100654.00;;;1.84;89.84
59531;BME280;45349;48.692;8.186;2023-02-11T09:05:21;100658.97;;;1.91;90.33
59531;BME280;45349;48.692;8.186;2023-02-11T09:07:48;100654.47;;;1.98;89.06
59531;BME280;45349;48.692;8.186;2023-02-11T09:10:15;100655.03;;;2.08;89.77
59531;BME280;45349;48.692;8.186;2023-02-11T09:12:41;100647.91;;;2.16;89.01
59531;BME280;45349;48.692;8.186;2023-02-11T09:15:09;100644.22;;;2.25;88.24
59531;BME280;45349;48.692;8.186;2023-02-11T09:17:36;100637.13;;;2.32;88.07
59531;BME280;45349;48.692;8.186;2023-02-11T09:20:03;100625.78;;;2.38;86.83
59531;BME280;45349;48.692;8.186;2023-02-11T09:22:30;100630.78;;;2.42;85.87
59531;BME280;45349;48.692;8.186;2023-02-11T09:24:56;100625.44;;;2.48;86.14
59531;BME280;45349;48.692;8.186;2023-02-11T09:27:23;100617.66;;;2.50;84.76
59531;BME280;45349;48.692;8.186;2023-02-11T09:29:49;100617.56;;;2.53;84.58
59531;BME280;45349;48.692;8.186;2023-02-11T09:32:17;100622.56;;;2.58;84.94
59531;BME280;45349;48.692;8.186;2023-02-11T09:34:44;100619.72;;;2.65;84.57
59531;BME280;45349;48.692;8.186;2023-02-11T09:37:10;100611.84;;;2.70;84.78
59531;BME280;45349;48.692;8.186;2023-02-11T09:39:37;100619.47;;;2.73;83.66
59531;BME280;45349;48.692;8.186;2023-02-11T09:44:54;100618.47;;;3.03;82.58
59531;BME280;45349;48.692;8.186;2023-02-11T09:47:27;100630.59;;;3.01;81.20
59531;BME280;45349;48.692;8.186;2023-02-11T09:49:59;100632.06;;;3.08;79.99
59531;BME280;45349;48.692;8.186;2023-02-11T09:52:31;100625.56;;;3.21;80.69
59531;BME280;45349;48.692;8.186;2023-02-11T09:55:01;100635.69;;;3.28;79.29
59531;BME280;45349;48.692;8.186;2023-02-11T09:57:31;100641.47;;;3.34;78.59
59531;BME280;45349;48.692;8.186;2023-02-11T09:59:59;100645.59;;;3.40;78.83
59531;BME280;45349;48.692;8.186;2023-02-11T10:02:33;100644.69;;;3.41;79.27
59531;BME280;45349;48.692;8.186;2023-02-11T10:05:18;100654.84;;;3.46;78.63
59531;BME280;45349;48.692;8.186;2023-02-11T10:07:50;100658.78;;;3.56;79.25
59531;BME280;45349;48.692;8.186;2023-02-11T10:10:34;100668.66;;;3.68;77.84
59531;BME280;45349;48.692;8.186;2023-02-11T10:13:20;100660.91;;;3.68;77.77
59531;BME280;45349;48.692;8.186;2023-02-11T10:15:53;100667.09;;;3.88;77.57
59531;BME280;45349;48.692;8.186;2023-02-11T10:18:39;100674.66;;;3.93;77.16
59531;BME280;45349;48.692;8.186;2023-02-11T10:21:17;100672.06;;;3.93;76.43
59531;BME280;45349;48.692;8.186;2023-02-11T10:23:48;100682.00;;;4.04;75.63
59531;BME280;45349;48.692;8.186;2023-02-11T10:26:18;100681.44;;;4.19;76.11
59531;BME280;45349;48.692;8.186;2023-02-11T10:28:46;100674.88;;;4.55;75.55
59531;BME280;45349;48.692;8.186;2023-02-11T10:31:17;100674.50;;;4.64;73.82
59531;BME280;45349;48.692;8.186;2023-02-11T10:33:52;100669.00;;;4.72;74.30
59531;BME280;45349;48.692;8.186;2023-02-11T10:36:21;100672.56;;;4.90;72.67
59531;BME280;45349;48.692;8.186;2023-02-11T10:38:49;100666.31;;;4.96;73.09
59531;BME280;45349;48.692;8.186;2023-02-11T10:41:19;100665.41;;;4.97;71.62
59531;BME280;45349;48.692;8.186;2023-02-11T10:43:49;100660.22;;;4.97;72.86
59531;BME280;45349;48.692;8.186;2023-02-11T10:46:19;100657.97;;;5.10;72.72
59531;BME280;45349;48.692;8.186;2023-02-11T10:48:49;100649.28;;;5.11;73.63
59531;BME280;45349;48.692;8.186;2023-02-11T10:51:19;100643.53;;;5.25;73.17
59531;BME280;45349;48.692;8.186;2023-02-11T10:53:47;100641.84;;;5.24;72.67
59531;BME280;45349;48.692;8.186;2023-02-11T10:56:21;100632.41;;;5.23;72.41
59531;BME280;45349;48.692;8.186;2023-02-11T10:58:58;100625.41;;;5.25;72.84
59531;BME280;45349;48.692;8.186;2023-02-11T11:01:38;100620.28;;;5.23;73.00
59531;BME280;45349;48.692;8.186;2023-02-11T11:04:26;100618.72;;;5.19;73.59
59531;BME280;45349;48.692;8.186;2023-02-11T11:07:12;100615.75;;;5.28;74.35
59531;BME280;45349;48.692;8.186;2023-02-11T11:09:48;100614.16;;;5.45;74.79
59531;BME280;45349;48.692;8.186;2023-02-11T11:12:31;100609.97;;;5.61;74.90
59531;BME280;45349;48.692;8.186;2023-02-11T11:15:01;100606.72;;;5.75;74.40
59531;BME280;45349;48.692;8.186;2023-02-11T11:17:28;100601.53;;;5.95;74.32
59531;BME280;45349;48.692;8.186;2023-02-11T11:20:14;100595.09;;;6.03;73.93
59531;BME280;45349;48.692;8.186;2023-02-11T11:22:42;100600.16;;;6.07;75.30
59531;BME280;45349;48.692;8.186;2023-02-11T11:25:21;100598.25;;;6.28;73.29
59531;BME280;45349;48.692;8.186;2023-02-11T11:27:48;100608.59;;;6.10;73.95
59531;BME280;45349;48.692;8.186;2023-02-11T11:30:16;100607.63;;;6.13;74.38
59531;BME280;45349;48.692;8.186;2023-02-11T11:32:43;100608.31;;;5.97;74.33
59531;BME280;45349;48.692;8.186;2023-02-11T11:35:24;100617.28;;;5.90;73.94
59531;BME280;45349;48.692;8.186;2023-02-11T11:37:53;100615.75;;;6.05;72.74
59531;BME280;45349;48.692;8.186;2023-02-11T11:40:22;100615.09;;;6.00;73.81
59531;BME280;45349;48.692;8.186;2023-02-11T11:43:03;100602.84;;;6.23;73.39
59531;BME280;45349;48.692;8.186;2023-02-11T11:45:29;100602.47;;;6.30;72.56
59531;BME280;45349;48.692;8.186;2023-02-11T11:47:58;100603.38;;;6.47;70.82
59531;BME280;45349;48.692;8.186;2023-02-11T11:50:30;100600.44;;;6.55;70.39
59531;BME280;45349;48.692;8.186;2023-02-11T11:53:00;100596.91;;;6.38;72.05
59531;BME280;45349;48.692;8.186;2023-02-11T11:55:33;100601.56;;;6.49;71.72
59531;BME280;45349;48.692;8.186;2023-02-11T11:58:03;100603.22;;;6.50;71.68
59531;BME280;45349;48.692;8.186;2023-02-11T12:00:36;100609.44;;;6.47;71.69
59531;BME280;45349;48.692;8.186;2023-02-11T12:03:26;100612.31;;;6.41;71.78
59531;BME280;45349;48.692;8.186;2023-02-11T12:06:09;100608.28;;;6.35;70.61
59531;BME280;45349;48.692;8.186;2023-02-11T12:08:44;100606.69;;;6.50;70.96
59531;BME280;45349;48.692;8.186;2023-02-11T12:11:19;100608.81;;;6.42;71.09
59531;BME280;45349;48.692;8.186;2023-02-11T12:14:06;100610.56;;;6.42;70.98
59531;BME280;45349;48.692;8.186;2023-02-11T12:16:44;100607.66;;;6.48;69.99
59531;BME280;45349;48.692;8.186;2023-02-11T12:19:31;100607.81;;;6.45;70.91
59531;BME280;45349;48.692;8.186;2023-02-11T12:22:09;100608.44;;;6.50;71.12
59531;BME280;45349;48.692;8.186;2023-02-11T12:24:57;100613.88;;;6.63;70.04
59531;BME280;45349;48.692;8.186;2023-02-11T12:27:42;100609.75;;;6.76;69.69
59531;BME280;45349;48.692;8.186;2023-02-11T12:30:31;100611.03;;;6.68;71.08
59531;BME280;45349;48.692;8.186;2023-02-11T12:33:05;100606.38;;;6.74;71.25
59531;BME280;45349;48.692;8.186;2023-02-11T12:35:43;100600.13;;;6.78;70.09
59531;BME280;45349;48.692;8.186;2023-02-11T12:38:29;100592.50;;;6.75;70.51
59531;BME280;45349;48.692;8.186;2023-02-11T12:41:16;100591.47;;;6.78;70.02
59531;BME280;45349;48.692;8.186;2023-02-11T12:44:07;100586.94;;;6.99;70.45
59531;BME280;45349;48.692;8.186;2023-02-11T12:46:40;100579.75;;;7.04;69.60
59531;BME280;45349;48.692;8.186;2023-02-11T12:49:26;100583.09;;;7.06;69.05
59531;BME280;45349;48.692;8.186;2023-02-11T12:52:11;100579.59;;;7.07;70.07
59531;BME280;45349;48.692;8.186;2023-02-11T12:54:47;100576.03;;;6.92;68.72
59531;BME280;45349;48.692;8.186;2023-02-11T12:57:20;100581.44;;;7.05;68.58
59531;BME280;45349;48.692;8.186;2023-02-11T12:59:55;100572.69;;;6.90;68.83
59531;BME280;45349;48.692;8.186;2023-02-11T13:02:30;100569.03;;;7.11;70.91
59531;BME280;45349;48.692;8.186;2023-02-11T13:05:01;100570.66;;;7.13;69.83
59531;BME280;45349;48.692;8.186;2023-02-11T13:07:33;100555.91;;;7.14;69.14
59531;BME280;45349;48.692;8.186;2023-02-11T13:10:14;100555.56;;;7.20;69.49
59531;BME280;45349;48.692;8.186;2023-02-11T13:12:43;100553.34;;;7.30;69.47
59531;BME280;45349;48.692;8.186;2023-02-11T13:15:27;100558.22;;;7.36;69.25